sensor_id;sensor_type;location;lat;lon;timestamp;pressure;altitude;pressure_sealevel;temperature;humidity
53480;BME280;56133;51.012;-1.648;2022-07-17T00:00:14;101646.25;;;16.28;87.31
53480;BME280;56133;51.012;-1.648;2022-07-17T00:02:39;101649.81;;;16.28;87.24
53480;BME280;56133;51.012;-1.648;2022-07-17T00:05:06;101644.69;;;16.25;88.19
53480;BME280;56133;51.012;-1.648;2022-07-17T00:07:31;101661.50;;;16.19;89.17
53480;BME280;56133;51.012;-1.648;2022-07-17T00:09:57;101656.81;;;16.21;88.29
53480;BME280;56133;51.012;-1.648;2022-07-17T00:12:23;101664.66;;;16.14;89.67
53480;BME280;56133;51.012;-1.648;2022-07-17T00:14:48;101655.34;;;16.07;90.74
53480;BME280;56133;51.012;-1.648;2022-07-17T00:17:14;101652.25;;;16.12;88.44
53480;BME280;56133;51.012;-1.648;2022-07-17T00:19:40;101649.66;;;16.10;88.33
53480;BME280;56133;51.012;-1.648;2022-07-17T00:22:06;101643.84;;;16.05;90.53
53480;BME280;56133;51.012;-1.648;2022-07-17T00:24:32;101631.69;;;16.09;88.97
53480;BME280;56133;51.012;-1.648;2022-07-17T00:26:58;101635.97;;;16.02;90.87
53480;BME280;56133;51.012;-1.648;2022-07-17T00:29:24;101630.13;;;16.06;90.21
53480;BME280;56133;51.012;-1.648;2022-07-17T00:31:50;101635.25;;;16.00;91.11
53480;BME280;56133;51.012;-1.648;2022-07-17T00:34:16;101638.69;;;16.02;90.98
53480;BME280;56133;51.012;-1.648;2022-07-17T00:36:42;101629.56;;;16.03;91.09
53480;BME280;56133;51.012;-1.648;2022-07-17T00:39:08;101628.69;;;16.02;90.62
53480;BME280;56133;51.012;-1.648;2022-07-17T00:41:34;101618.84;;;16.01;89.91
53480;BME280;56133;51.012;-1.648;2022-07-17T00:44:08;101611.72;;;16.00;90.85
53480;BME280;56133;51.012;-1.648;2022-07-17T00:46:34;101615.41;;;15.99;90.83
53480;BME280;56133;51.012;-1.648;2022-07-17T00:49:00;101615.56;;;15.98;91.43
53480;BME280;56133;51.012;-1.648;2022-07-17T00:51:26;101606.00;;;15.93;91.05
53480;BME280;56133;51.012;-1.648;2022-07-17T00:53:52;101597.47;;;15.88;92.56
53480;BME280;56133;51.012;-1.648;2022-07-17T00:56:20;101609.31;;;15.87;92.00
53480;BME280;56133;51.012;-1.648;2022-07-17T00:58:48;101609.00;;;15.90;90.26
53480;BME280;56133;51.012;-1.648;2022-07-17T01:01:14;101603.72;;;15.89;89.66
53480;BME280;56133;51.012;-1.648;2022-07-17T01:03:40;101606.25;;;15.71;90.86
53480;BME280;56133;51.012;-1.648;2022-07-17T01:06:06;101602.09;;;15.67;90.32
53480;BME280;56133;51.012;-1.648;2022-07-17T01:08:32;101605.09;;;15.63;89.51
53480;BME280;56133;51.012;-1.648;2022-07-17T01:10:58;101609.22;;;15.58;90.10
53480;BME280;56133;51.012;-1.648;2022-07-17T01:13:24;101603.34;;;15.53;90.58
53480;BME280;56133;51.012;-1.648;2022-07-17T01:15:50;101602.09;;;15.57;89.72
53480;BME280;56133;51.012;-1.648;2022-07-17T01:18:16;101596.50;;;15.48;90.10
53480;BME280;56133;51.012;-1.648;2022-07-17T01:20:45;101598.22;;;15.50;91.97
53480;BME280;56133;51.012;-1.648;2022-07-17T01:23:11;101597.94;;;15.53;91.11
53480;BME280;56133;51.012;-1.648;2022-07-17T01:25:36;101597.78;;;15.44;92.29
53480;BME280;56133;51.012;-1.648;2022-07-17T01:28:03;101597.16;;;15.31;93.32
53480;BME280;56133;51.012;-1.648;2022-07-17T01:30:29;101603.19;;;15.35;92.47
53480;BME280;56133;51.012;-1.648;2022-07-17T01:32:55;101597.31;;;15.29;92.84
53480;BME280;56133;51.012;-1.648;2022-07-17T01:35:21;101595.75;;;15.27;92.37
53480;BME280;56133;51.012;-1.648;2022-07-17T01:37:47;101588.63;;;15.26;92.74
53480;BME280;56133;51.012;-1.648;2022-07-17T01:40:14;101582.75;;;15.21;93.85
53480;BME280;56133;51.012;-1.648;2022-07-17T01:42:42;101583.44;;;15.13;94.60
53480;BME280;56133;51.012;-1.648;2022-07-17T01:45:09;101592.56;;;15.12;94.43
53480;BME280;56133;51.012;-1.648;2022-07-17T01:47:35;101594.28;;;15.13;94.61
53480;BME280;56133;51.012;-1.648;2022-07-17T01:50:01;101599.13;;;15.09;94.98
53480;BME280;56133;51.012;-1.648;2022-07-17T01:52:27;101592.09;;;15.07;94.87
53480;BME280;56133;51.012;-1.648;2022-07-17T01:54:53;101593.78;;;14.98;96.00
53480;BME280;56133;51.012;-1.648;2022-07-17T01:57:20;101598.09;;;15.00;95.76
53480;BME280;56133;51.012;-1.648;2022-07-17T01:59:45;101600.31;;;14.95;96.06
53480;BME280;56133;51.012;-1.648;2022-07-17T02:02:13;101593.94;;;14.96;95.37
53480;BME280;56133;51.012;-1.648;2022-07-17T02:04:40;101583.59;;;14.80;98.61
53480;BME280;56133;51.012;-1.648;2022-07-17T02:07:09;101579.78;;;14.83;97.66
53480;BME280;56133;51.012;-1.648;2022-07-17T02:09:35;101585.22;;;14.93;95.22
53480;BME280;56133;51.012;-1.648;2022-07-17T02:12:00;101582.38;;;14.94;95.46
53480;BME280;56133;51.012;-1.648;2022-07-17T02:14:26;101585.34;;;14.91;95.07
53480;BME280;56133;51.012;-1.648;2022-07-17T02:16:52;101583.06;;;14.86;95.64
53480;BME280;56133;51.012;-1.648;2022-07-17T02:19:18;101591.31;;;14.85;95.39
53480;BME280;56133;51.012;-1.648;2022-07-17T02:21:43;101588.72;;;14.83;95.26
53480;BME280;56133;51.012;-1.648;2022-07-17T02:24:09;101593.69;;;14.78;95.81
53480;BME280;56133;51.012;-1.648;2022-07-17T02:26:35;101583.47;;;14.82;95.37
53480;BME280;56133;51.012;-1.648;2022-07-17T02:29:00;101582.44;;;14.73;96.28
53480;BME280;56133;51.012;-1.648;2022-07-17T02:31:26;101584.25;;;14.72;95.86
53480;BME280;56133;51.012;-1.648;2022-07-17T02:33:51;101589.56;;;14.74;97.14
53480;BME280;56133;51.012;-1.648;2022-07-17T02:36:17;101592.84;;;14.78;97.27
53480;BME280;56133;51.012;-1.648;2022-07-17T02:38:42;101589.59;;;14.84;99.29
53480;BME280;56133;51.012;-1.648;2022-07-17T02:41:08;101595.19;;;14.92;99.55
53480;BME280;56133;51.012;-1.648;2022-07-17T02:43:33;101598.34;;;14.97;99.26
53480;BME280;56133;51.012;-1.648;2022-07-17T02:46:00;101592.06;;;14.97;96.83
53480;BME280;56133;51.012;-1.648;2022-07-17T02:48:26;101593.19;;;14.94;97.66
53480;BME280;56133;51.012;-1.648;2022-07-17T02:50:51;101594.38;;;15.01;100.00
53480;BME280;56133;51.012;-1.648;2022-07-17T02:53:17;101594.53;;;15.10;99.69
53480;BME280;56133;51.012;-1.648;2022-07-17T02:55:42;101587.16;;;15.12;99.35
53480;BME280;56133;51.012;-1.648;2022-07-17T02:58:08;101591.41;;;15.14;100.00
53480;BME280;56133;51.012;-1.648;2022-07-17T03:00:33;101592.72;;;15.10;99.32
53480;BME280;56133;51.012;-1.648;2022-07-17T03:02:59;101589.53;;;15.05;98.96
53480;BME280;56133;51.012;-1.648;2022-07-17T03:05:24;101587.38;;;14.99;99.75
53480;BME280;56133;51.012;-1.648;2022-07-17T03:07:50;101588.94;;;14.92;99.54
53480;BME280;56133;51.012;-1.648;2022-07-17T03:10:16;101583.63;;;14.90;99.13
53480;BME280;56133;51.012;-1.648;2022-07-17T03:12:42;101584.88;;;14.86;98.86
53480;BME280;56133;51.012;-1.648;2022-07-17T03:15:08;101584.78;;;14.87;98.15
53480;BME280;56133;51.012;-1.648;2022-07-17T03:17:34;101592.31;;;14.84;98.04
53480;BME280;56133;51.012;-1.648;2022-07-17T03:20:00;101592.56;;;14.81;96.89
53480;BME280;56133;51.012;-1.648;2022-07-17T03:22:25;101590.53;;;14.73;97.73
53480;BME280;56133;51.012;-1.648;2022-07-17T03:24:51;101587.13;;;14.71;98.22
53480;BME280;56133;51.012;-1.648;2022-07-17T03:27:17;101589.59;;;14.63;99.81
53480;BME280;56133;51.012;-1.648;2022-07-17T03:29:43;101587.75;;;14.63;99.53
53480;BME280;56133;51.012;-1.648;2022-07-17T03:32:09;101583.06;;;14.65;99.97
53480;BME280;56133;51.012;-1.648;2022-07-17T03:34:36;101580.13;;;14.68;99.70
53480;BME280;56133;51.012;-1.648;2022-07-17T03:37:02;101584.78;;;14.66;100.00
53480;BME280;56133;51.012;-1.648;2022-07-17T03:39:27;101583.78;;;14.67;100.00
53480;BME280;56133;51.012;-1.648;2022-07-17T03:41:53;101581.97;;;14.68;100.00
53480;BME280;56133;51.012;-1.648;2022-07-17T03:44:18;101582.53;;;14.71;100.00
53480;BME280;56133;51.012;-1.648;2022-07-17T03:46:43;101582.59;;;14.81;100.00
53480;BME280;56133;51.012;-1.648;2022-07-17T03:49:09;101586.03;;;14.83;100.00
53480;BME280;56133;51.012;-1.648;2022-07-17T03:51:35;101582.34;;;14.84;100.00
53480;BME280;56133;51.012;-1.648;2022-07-17T03:54:01;101586.53;;;14.98;100.00
53480;BME280;56133;51.012;-1.648;2022-07-17T03:56:27;101580.16;;;15.09;99.53
53480;BME280;56133;51.012;-1.648;2022-07-17T03:58:53;101569.47;;;15.08;99.21
53480;BME280;56133;51.012;-1.648;2022-07-17T04:01:19;101576.59;;;15.09;99.41
53480;BME280;56133;51.012;-1.648;2022-07-17T04:03:45;101581.00;;;15.10;97.78
53480;BME280;56133;51.012;-1.648;2022-07-17T04:06:10;101589.41;;;15.07;99.39
53480;BME280;56133;51.012;-1.648;2022-07-17T04:08:36;101594.09;;;15.05;100.00
53480;BME280;56133;51.012;-1.648;2022-07-17T04:11:02;101588.56;;;15.06;98.78
53480;BME280;56133;51.012;-1.648;2022-07-17T04:13:27;101585.84;;;15.06;99.45
53480;BME280;56133;51.012;-1.648;2022-07-17T04:15:53;101593.09;;;15.06;98.78
53480;BME280;56133;51.012;-1.648;2022-07-17T04:18:26;101579.03;;;15.12;99.52
53480;BME280;56133;51.012;-1.648;2022-07-17T04:20:54;101586.69;;;15.07;98.11
53480;BME280;56133;51.012;-1.648;2022-07-17T04:23:20;101580.69;;;15.03;99.99
53480;BME280;56133;51.012;-1.648;2022-07-17T04:25:46;101586.84;;;15.05;99.81
53480;BME280;56133;51.012;-1.648;2022-07-17T04:28:12;101581.69;;;15.02;99.78
53480;BME280;56133;51.012;-1.648;2022-07-17T04:30:38;101579.00;;;15.02;100.00
53480;BME280;56133;51.012;-1.648;2022-07-17T04:33:04;101579.00;;;15.02;99.96
53480;BME280;56133;51.012;-1.648;2022-07-17T04:35:30;101575.81;;;14.97;100.00
53480;BME280;56133;51.012;-1.648;2022-07-17T04:37:55;101579.97;;;15.01;99.66
53480;BME280;56133;51.012;-1.648;2022-07-17T04:40:21;101581.53;;;15.03;100.00
53480;BME280;56133;51.012;-1.648;2022-07-17T04:42:46;101572.59;;;15.03;99.24
53480;BME280;56133;51.012;-1.648;2022-07-17T04:45:13;101579.88;;;15.02;100.00
53480;BME280;56133;51.012;-1.648;2022-07-17T04:47:42;101579.72;;;15.04;100.00
53480;BME280;56133;51.012;-1.648;2022-07-17T04:50:08;101577.72;;;15.06;100.00
53480;BME280;56133;51.012;-1.648;2022-07-17T04:52:34;101572.88;;;15.10;98.83
53480;BME280;56133;51.012;-1.648;2022-07-17T04:55:00;101581.69;;;15.02;100.00
53480;BME280;56133;51.012;-1.648;2022-07-17T04:57:25;101580.28;;;15.08;100.00
53480;BME280;56133;51.012;-1.648;2022-07-17T04:59:51;101575.03;;;15.06;100.00
53480;BME280;56133;51.012;-1.648;2022-07-17T05:02:17;101580.47;;;15.16;100.00
53480;BME280;56133;51.012;-1.648;2022-07-17T05:04:42;101584.59;;;15.20;100.00
53480;BME280;56133;51.012;-1.648;2022-07-17T05:07:08;101584.47;;;15.22;100.00
53480;BME280;56133;51.012;-1.648;2022-07-17T05:09:33;101577.91;;;15.24;100.00
53480;BME280;56133;51.012;-1.648;2022-07-17T05:11:59;101576.19;;;15.23;100.00
53480;BME280;56133;51.012;-1.648;2022-07-17T05:14:24;101578.81;;;15.35;100.00
53480;BME280;56133;51.012;-1.648;2022-07-17T05:16:50;101578.97;;;15.43;98.96
53480;BME280;56133;51.012;-1.648;2022-07-17T05:19:15;101580.94;;;15.41;99.57
53480;BME280;56133;51.012;-1.648;2022-07-17T05:21:41;101581.84;;;15.51;98.62
53480;BME280;56133;51.012;-1.648;2022-07-17T05:24:06;101579.13;;;15.51;99.07
53480;BME280;56133;51.012;-1.648;2022-07-17T05:26:32;101579.84;;;15.63;99.09
53480;BME280;56133;51.012;-1.648;2022-07-17T05:28:57;101583.88;;;15.69;97.51
53480;BME280;56133;51.012;-1.648;2022-07-17T05:31:23;101576.72;;;15.68;97.00
53480;BME280;56133;51.012;-1.648;2022-07-17T05:33:49;101568.75;;;15.76;96.72
53480;BME280;56133;51.012;-1.648;2022-07-17T05:36:14;101567.78;;;15.87;96.34
53480;BME280;56133;51.012;-1.648;2022-07-17T05:38:39;101577.34;;;15.91;95.88
53480;BME280;56133;51.012;-1.648;2022-07-17T05:41:05;101578.06;;;16.03;95.04
53480;BME280;56133;51.012;-1.648;2022-07-17T05:43:30;101586.31;;;16.11;94.83
53480;BME280;56133;51.012;-1.648;2022-07-17T05:45:57;101595.44;;;16.10;94.64
53480;BME280;56133;51.012;-1.648;2022-07-17T05:48:23;101587.31;;;16.20;94.35
53480;BME280;56133;51.012;-1.648;2022-07-17T05:50:49;101584.47;;;16.21;94.46
53480;BME280;56133;51.012;-1.648;2022-07-17T05:53:15;101592.88;;;16.28;94.06
53480;BME280;56133;51.012;-1.648;2022-07-17T05:55:41;101594.00;;;16.35;94.49
53480;BME280;56133;51.012;-1.648;2022-07-17T05:58:07;101590.16;;;16.38;94.53
53480;BME280;56133;51.012;-1.648;2022-07-17T06:00:33;101596.84;;;16.44;93.32
53480;BME280;56133;51.012;-1.648;2022-07-17T06:02:59;101593.41;;;16.51;93.28
53480;BME280;56133;51.012;-1.648;2022-07-17T06:05:25;101590.22;;;16.66;92.61
53480;BME280;56133;51.012;-1.648;2022-07-17T06:07:52;101596.91;;;16.72;91.82
53480;BME280;56133;51.012;-1.648;2022-07-17T06:10:18;101595.47;;;16.77;91.98
53480;BME280;56133;51.012;-1.648;2022-07-17T06:12:43;101594.13;;;16.91;91.88
53480;BME280;56133;51.012;-1.648;2022-07-17T06:15:10;101596.31;;;16.88;91.22
53480;BME280;56133;51.012;-1.648;2022-07-17T06:17:35;101591.41;;;17.01;92.05
53480;BME280;56133;51.012;-1.648;2022-07-17T06:20:01;101597.44;;;16.95;91.30
53480;BME280;56133;51.012;-1.648;2022-07-17T06:22:27;101597.84;;;17.00;91.25
53480;BME280;56133;51.012;-1.648;2022-07-17T06:24:53;101587.88;;;16.91;91.04
53480;BME280;56133;51.012;-1.648;2022-07-17T06:27:18;101587.53;;;17.04;91.33
53480;BME280;56133;51.012;-1.648;2022-07-17T06:29:44;101587.03;;;17.18;90.29
53480;BME280;56133;51.012;-1.648;2022-07-17T06:32:11;101585.44;;;17.25;90.44
53480;BME280;56133;51.012;-1.648;2022-07-17T06:34:37;101582.38;;;17.38;89.27
53480;BME280;56133;51.012;-1.648;2022-07-17T06:37:02;101586.28;;;17.26;89.38
53480;BME280;56133;51.012;-1.648;2022-07-17T06:39:28;101588.00;;;17.27;90.11
53480;BME280;56133;51.012;-1.648;2022-07-17T06:41:54;101597.75;;;17.48;88.19
53480;BME280;56133;51.012;-1.648;2022-07-17T06:44:19;101600.03;;;17.70;87.20
53480;BME280;56133;51.012;-1.648;2022-07-17T06:46:45;101607.19;;;17.71;88.02
53480;BME280;56133;51.012;-1.648;2022-07-17T06:49:10;101611.44;;;17.74;87.96
53480;BME280;56133;51.012;-1.648;2022-07-17T06:51:36;101612.84;;;17.78;85.67
53480;BME280;56133;51.012;-1.648;2022-07-17T06:54:01;101617.81;;;17.83;85.15
53480;BME280;56133;51.012;-1.648;2022-07-17T06:56:27;101618.28;;;17.96;84.36
53480;BME280;56133;51.012;-1.648;2022-07-17T06:58:52;101615.50;;;18.06;82.98
53480;BME280;56133;51.012;-1.648;2022-07-17T07:01:18;101618.47;;;18.31;85.95
53480;BME280;56133;51.012;-1.648;2022-07-17T07:03:44;101621.22;;;18.57;83.47
53480;BME280;56133;51.012;-1.648;2022-07-17T07:06:10;101622.03;;;18.76;82.03
53480;BME280;56133;51.012;-1.648;2022-07-17T07:08:35;101624.09;;;19.08;79.05
53480;BME280;56133;51.012;-1.648;2022-07-17T07:11:01;101636.25;;;19.31;81.36
53480;BME280;56133;51.012;-1.648;2022-07-17T07:13:28;101632.06;;;19.45;77.29
53480;BME280;56133;51.012;-1.648;2022-07-17T07:15:54;101626.03;;;19.67;74.09
53480;BME280;56133;51.012;-1.648;2022-07-17T07:18:20;101622.78;;;19.72;76.91
53480;BME280;56133;51.012;-1.648;2022-07-17T07:20:46;101629.66;;;20.01;74.85
53480;BME280;56133;51.012;-1.648;2022-07-17T07:23:12;101630.91;;;20.23;73.25
53480;BME280;56133;51.012;-1.648;2022-07-17T07:25:37;101639.91;;;20.15;72.54
53480;BME280;56133;51.012;-1.648;2022-07-17T07:28:03;101635.50;;;20.39;71.23
53480;BME280;56133;51.012;-1.648;2022-07-17T07:30:29;101639.75;;;20.42;70.90
53480;BME280;56133;51.012;-1.648;2022-07-17T07:32:55;101640.09;;;20.55;70.48
53480;BME280;56133;51.012;-1.648;2022-07-17T07:35:20;101638.41;;;20.38;70.38
53480;BME280;56133;51.012;-1.648;2022-07-17T07:37:46;101634.09;;;20.52;70.90
53480;BME280;56133;51.012;-1.648;2022-07-17T07:40:12;101629.25;;;21.03;70.08
53480;BME280;56133;51.012;-1.648;2022-07-17T07:42:38;101628.03;;;21.14;68.84
53480;BME280;56133;51.012;-1.648;2022-07-17T07:45:03;101626.88;;;21.08;68.28
53480;BME280;56133;51.012;-1.648;2022-07-17T07:47:29;101630.75;;;21.22;69.12
53480;BME280;56133;51.012;-1.648;2022-07-17T07:49:55;101629.50;;;21.33;68.04
53480;BME280;56133;51.012;-1.648;2022-07-17T07:52:20;101630.84;;;21.37;66.73
53480;BME280;56133;51.012;-1.648;2022-07-17T07:54:46;101638.53;;;21.42;66.40
53480;BME280;56133;51.012;-1.648;2022-07-17T07:57:11;101632.28;;;21.65;66.78
53480;BME280;56133;51.012;-1.648;2022-07-17T07:59:37;101628.16;;;21.92;65.37
53480;BME280;56133;51.012;-1.648;2022-07-17T08:02:03;101622.78;;;22.07;64.72
53480;BME280;56133;51.012;-1.648;2022-07-17T08:04:29;101623.84;;;21.75;65.51
53480;BME280;56133;51.012;-1.648;2022-07-17T08:06:55;101624.41;;;21.93;65.31
53480;BME280;56133;51.012;-1.648;2022-07-17T08:09:21;101614.00;;;21.89;64.71
53480;BME280;56133;51.012;-1.648;2022-07-17T08:11:46;101608.06;;;22.47;64.08
53480;BME280;56133;51.012;-1.648;2022-07-17T08:14:12;101617.56;;;22.89;63.78
53480;BME280;56133;51.012;-1.648;2022-07-17T08:16:37;101622.69;;;22.92;61.41
53480;BME280;56133;51.012;-1.648;2022-07-17T08:19:03;101615.03;;;23.17;62.84
53480;BME280;56133;51.012;-1.648;2022-07-17T08:21:28;101610.97;;;23.65;59.91
53480;BME280;56133;51.012;-1.648;2022-07-17T08:23:54;101608.69;;;23.47;59.75
53480;BME280;56133;51.012;-1.648;2022-07-17T08:26:19;101607.97;;;23.97;56.80
53480;BME280;56133;51.012;-1.648;2022-07-17T08:28:45;101612.28;;;24.06;55.50
53480;BME280;56133;51.012;-1.648;2022-07-17T08:31:11;101604.31;;;23.74;57.33
53480;BME280;56133;51.012;-1.648;2022-07-17T08:33:37;101611.44;;;24.05;55.68
53480;BME280;56133;51.012;-1.648;2022-07-17T08:36:02;101599.16;;;24.01;57.55
53480;BME280;56133;51.012;-1.648;2022-07-17T08:38:27;101608.50;;;23.92;55.95
53480;BME280;56133;51.012;-1.648;2022-07-17T08:40:53;101611.22;;;24.07;54.29
53480;BME280;56133;51.012;-1.648;2022-07-17T08:43:20;101602.94;;;24.00;56.47
53480;BME280;56133;51.012;-1.648;2022-07-17T08:45:47;101598.19;;;23.94;54.30
53480;BME280;56133;51.012;-1.648;2022-07-17T08:48:15;101595.75;;;23.99;54.18
53480;BME280;56133;51.012;-1.648;2022-07-17T08:50:41;101578.09;;;24.37;54.83
53480;BME280;56133;51.012;-1.648;2022-07-17T08:53:07;101576.34;;;24.29;52.51
53480;BME280;56133;51.012;-1.648;2022-07-17T08:55:33;101577.41;;;24.57;53.84
53480;BME280;56133;51.012;-1.648;2022-07-17T08:57:58;101589.41;;;24.49;53.56
53480;BME280;56133;51.012;-1.648;2022-07-17T09:00:25;101591.66;;;24.67;52.86
53480;BME280;56133;51.012;-1.648;2022-07-17T09:03:04;101578.91;;;24.94;52.80
53480;BME280;56133;51.012;-1.648;2022-07-17T09:05:32;101574.53;;;25.42;52.04
53480;BME280;56133;51.012;-1.648;2022-07-17T09:07:59;101582.63;;;25.70;50.65
53480;BME280;56133;51.012;-1.648;2022-07-17T09:10:35;101595.31;;;25.71;47.83
53480;BME280;56133;51.012;-1.648;2022-07-17T09:13:01;101600.16;;;25.14;48.66
53480;BME280;56133;51.012;-1.648;2022-07-17T09:15:27;101604.25;;;25.25;47.54
53480;BME280;56133;51.012;-1.648;2022-07-17T09:17:55;101600.72;;;24.96;49.93
53480;BME280;56133;51.012;-1.648;2022-07-17T09:20:21;101598.75;;;25.31;48.11
53480;BME280;56133;51.012;-1.648;2022-07-17T09:23:02;101595.56;;;25.83;47.98
53480;BME280;56133;51.012;-1.648;2022-07-17T09:25:37;101586.06;;;25.93;49.09
53480;BME280;56133;51.012;-1.648;2022-07-17T09:28:04;101589.91;;;26.12;45.65
53480;BME280;56133;51.012;-1.648;2022-07-17T09:30:30;101586.94;;;26.27;44.60
53480;BME280;56133;51.012;-1.648;2022-07-17T09:32:56;101588.66;;;26.28;45.44
53480;BME280;56133;51.012;-1.648;2022-07-17T09:35:23;101587.94;;;25.79;44.54
53480;BME280;56133;51.012;-1.648;2022-07-17T09:37:51;101584.13;;;26.06;45.93
53480;BME280;56133;51.012;-1.648;2022-07-17T09:40:17;101577.38;;;26.09;44.29
53480;BME280;56133;51.012;-1.648;2022-07-17T09:43:01;101579.09;;;26.30;46.06
53480;BME280;56133;51.012;-1.648;2022-07-17T09:45:26;101584.56;;;26.84;44.41
53480;BME280;56133;51.012;-1.648;2022-07-17T09:47:52;101575.50;;;26.36;42.11
53480;BME280;56133;51.012;-1.648;2022-07-17T09:50:19;101583.75;;;26.43;41.49
53480;BME280;56133;51.012;-1.648;2022-07-17T09:52:45;101580.94;;;26.70;40.98
53480;BME280;56133;51.012;-1.648;2022-07-17T09:55:11;101573.16;;;26.33;40.83
53480;BME280;56133;51.012;-1.648;2022-07-17T09:57:40;101583.72;;;25.96;42.34
53480;BME280;56133;51.012;-1.648;2022-07-17T10:00:07;101578.88;;;26.52;41.48
53480;BME280;56133;51.012;-1.648;2022-07-17T10:02:40;101575.53;;;27.16;42.90
53480;BME280;56133;51.012;-1.648;2022-07-17T10:05:07;101571.66;;;27.69;42.51
53480;BME280;56133;51.012;-1.648;2022-07-17T10:07:39;101568.44;;;27.33;40.89
53480;BME280;56133;51.012;-1.648;2022-07-17T10:10:09;101566.72;;;27.78;40.00
53480;BME280;56133;51.012;-1.648;2022-07-17T10:12:37;101571.75;;;27.87;39.21
53480;BME280;56133;51.012;-1.648;2022-07-17T10:15:04;101581.06;;;27.16;38.90
53480;BME280;56133;51.012;-1.648;2022-07-17T10:17:30;101574.09;;;27.45;39.26
53480;BME280;56133;51.012;-1.648;2022-07-17T10:19:57;101563.00;;;27.20;39.04
53480;BME280;56133;51.012;-1.648;2022-07-17T10:22:23;101571.78;;;27.42;38.38
53480;BME280;56133;51.012;-1.648;2022-07-17T10:24:51;101577.94;;;26.99;38.93
53480;BME280;56133;51.012;-1.648;2022-07-17T10:27:25;101571.03;;;27.28;38.86
53480;BME280;56133;51.012;-1.648;2022-07-17T10:30:05;101568.44;;;28.04;36.68
53480;BME280;56133;51.012;-1.648;2022-07-17T10:32:31;101569.66;;;27.44;37.27
53480;BME280;56133;51.012;-1.648;2022-07-17T10:40:10;101566.28;;;28.13;36.66
53480;BME280;56133;51.012;-1.648;2022-07-17T10:42:56;101560.97;;;27.79;36.39
53480;BME280;56133;51.012;-1.648;2022-07-17T10:45:30;101556.31;;;27.80;37.02
53480;BME280;56133;51.012;-1.648;2022-07-17T10:48:04;101560.75;;;28.13;37.24
53480;BME280;56133;51.012;-1.648;2022-07-17T10:50:38;101562.81;;;28.43;35.23
53480;BME280;56133;51.012;-1.648;2022-07-17T10:53:07;101554.69;;;28.48;34.94
53480;BME280;56133;51.012;-1.648;2022-07-17T10:55:35;101572.00;;;27.40;36.59
53480;BME280;56133;51.012;-1.648;2022-07-17T10:58:04;101564.47;;;27.68;35.75
53480;BME280;56133;51.012;-1.648;2022-07-17T11:00:38;101551.06;;;27.97;36.16
53480;BME280;56133;51.012;-1.648;2022-07-17T11:03:09;101567.13;;;28.57;36.07
53480;BME280;56133;51.012;-1.648;2022-07-17T11:05:34;101555.53;;;28.23;35.08
53480;BME280;56133;51.012;-1.648;2022-07-17T11:08:00;101561.22;;;28.54;35.40
53480;BME280;56133;51.012;-1.648;2022-07-17T11:10:28;101562.56;;;28.88;36.07
53480;BME280;56133;51.012;-1.648;2022-07-17T11:12:54;101552.22;;;29.33;34.60
53480;BME280;56133;51.012;-1.648;2022-07-17T11:15:20;101554.97;;;29.33;35.97
53480;BME280;56133;51.012;-1.648;2022-07-17T11:17:47;101557.06;;;29.68;33.97
53480;BME280;56133;51.012;-1.648;2022-07-17T11:20:14;101553.84;;;29.95;33.19
53480;BME280;56133;51.012;-1.648;2022-07-17T11:22:40;101551.84;;;30.38;33.07
53480;BME280;56133;51.012;-1.648;2022-07-17T11:25:06;101545.63;;;29.15;33.58
53480;BME280;56133;51.012;-1.648;2022-07-17T11:27:32;101547.91;;;30.22;34.59
53480;BME280;56133;51.012;-1.648;2022-07-17T11:29:59;101550.81;;;29.42;33.21
53480;BME280;56133;51.012;-1.648;2022-07-17T11:32:36;101540.56;;;29.12;32.93
53480;BME280;56133;51.012;-1.648;2022-07-17T11:35:13;101534.94;;;29.80;32.96
53480;BME280;56133;51.012;-1.648;2022-07-17T11:37:39;101538.81;;;28.81;32.97
53480;BME280;56133;51.012;-1.648;2022-07-17T11:40:04;101524.97;;;29.48;34.42
53480;BME280;56133;51.012;-1.648;2022-07-17T11:42:30;101528.78;;;29.90;32.22
53480;BME280;56133;51.012;-1.648;2022-07-17T11:44:56;101532.34;;;29.66;32.01
53480;BME280;56133;51.012;-1.648;2022-07-17T11:47:24;101531.09;;;29.93;32.35
53480;BME280;56133;51.012;-1.648;2022-07-17T11:49:52;101538.22;;;29.46;32.19
53480;BME280;56133;51.012;-1.648;2022-07-17T11:52:19;101531.16;;;29.74;31.64
53480;BME280;56133;51.012;-1.648;2022-07-17T11:54:46;101524.91;;;29.67;31.68
53480;BME280;56133;51.012;-1.648;2022-07-17T11:57:12;101518.38;;;29.31;31.38
53480;BME280;56133;51.012;-1.648;2022-07-17T11:59:38;101517.72;;;30.73;31.90
53480;BME280;56133;51.012;-1.648;2022-07-17T12:02:08;101516.75;;;29.84;30.99
53480;BME280;56133;51.012;-1.648;2022-07-17T12:04:34;101512.47;;;30.00;30.27
53480;BME280;56133;51.012;-1.648;2022-07-17T12:07:01;101517.75;;;30.61;33.19
53480;BME280;56133;51.012;-1.648;2022-07-17T12:09:36;101525.22;;;30.01;30.54
53480;BME280;56133;51.012;-1.648;2022-07-17T12:12:02;101515.09;;;30.42;31.53
53480;BME280;56133;51.012;-1.648;2022-07-17T12:14:28;101505.22;;;30.99;33.52
53480;BME280;56133;51.012;-1.648;2022-07-17T12:17:03;101509.81;;;30.65;30.96
53480;BME280;56133;51.012;-1.648;2022-07-17T12:19:29;101501.50;;;29.51;32.56
53480;BME280;56133;51.012;-1.648;2022-07-17T12:22:00;101506.06;;;28.96;30.95
53480;BME280;56133;51.012;-1.648;2022-07-17T12:24:51;101503.66;;;28.88;31.25
53480;BME280;56133;51.012;-1.648;2022-07-17T12:27:17;101512.13;;;29.05;30.84
53480;BME280;56133;51.012;-1.648;2022-07-17T12:29:44;101506.13;;;29.69;29.65
53480;BME280;56133;51.012;-1.648;2022-07-17T12:34:47;101506.97;;;28.78;31.69
53480;BME280;56133;51.012;-1.648;2022-07-17T12:37:17;101506.78;;;28.91;31.39
53480;BME280;56133;51.012;-1.648;2022-07-17T12:39:44;101512.75;;;28.07;31.23
53480;BME280;56133;51.012;-1.648;2022-07-17T12:42:10;101509.81;;;28.02;30.84